Home   Weather   Níjar   Past weeks
Flag for Spain

Past Weather in Níjar, Almería, Spain — Yesterday and Last 2 Weeks

Currently: 66 °F. Passing clouds. (Weather station: Almeria / Aeropuerto, Spain). See more current weather

Past Weather in Níjar — Graph

°F

Níjar Temperature Yesterday

Maximum temperature yesterday: 86 °F (at 12:30 pm)
Minimum temperature yesterday: 75 °F (at 4:30 am)
Average temperature yesterday: 81 °F

High & Low Weather Summary for the Past Weeks

 TemperatureHumidityPressure
High86 °F (Apr 10, 12:30 pm)88% (Mar 29, 6:30 am)30.36 "Hg (Mar 29, 6:30 am)
Low46 °F (Mar 30, 3:00 am)12% (Mar 29, 7:00 pm)29.77 "Hg (Apr 10, 6:00 pm)
Average64 °F55%30.09 "Hg
* Reported Mar 27 2:00 pm — Apr 11 3:30 pm, Níjar. Weather by CustomWeather, © 2026

Note: Actual official high and low records may vary slightly from our data, if they occured in-between our weather recording intervals... More about our weather records

Níjar Weather History for the Previous 24 Hours

Scroll right to see more
 ConditionsComfort  
Time TempWeatherWind HumidityBarometerVisibility
3:30 pm
Sat, Apr 11
66 °FPassing clouds.9 mph73%29.77 "HgN/A
3:00 pm66 °FSunny.13 mph73%29.80 "Hg10 mi
2:30 pm66 °FPassing clouds.15 mph78%29.80 "HgN/A
2:00 pm66 °FPassing clouds.13 mph78%29.80 "HgN/A
1:30 pm66 °FPassing clouds.8 mph78%29.80 "HgN/A
1:00 pm66 °FPassing clouds.8 mph78%29.80 "HgN/A
12:30 pm68 °FPassing clouds.15 mph64%29.83 "HgN/A
12:00 pm68 °FPassing clouds.12 mph69%29.86 "HgN/A
11:30 am66 °FPassing clouds.9 mph78%29.86 "HgN/A
11:00 am66 °FPassing clouds.6 mph73%29.86 "HgN/A
10:30 am66 °FPassing clouds.8 mph68%29.86 "HgN/A
10:00 am66 °FPassing clouds.6 mph68%29.83 "HgN/A
9:30 am66 °FPassing clouds.9 mph73%29.83 "HgN/A
9:00 am68 °FSunny.7 mph56%29.80 "Hg10 mi
8:30 am68 °FSunny.12 mph60%29.83 "Hg10 mi
8:00 am68 °FPassing clouds.8 mph60%29.80 "HgN/A
7:30 am66 °FPassing clouds.8 mph68%29.80 "HgN/A
7:00 am66 °FPassing clouds.5 mph68%29.83 "HgN/A
6:30 am66 °FPassing clouds.5 mph64%29.83 "HgN/A
6:00 am66 °FPassing clouds.1 mph73%29.83 "HgN/A
5:30 am68 °FPassing clouds.3 mph60%29.83 "HgN/A
5:00 am66 °FPassing clouds.7 mph68%29.83 "HgN/A
4:30 am70 °FPassing clouds.15 mph50%29.86 "HgN/A
4:00 am68 °FLight rain. Passing clouds.8 mph56%29.86 "HgN/A
3:30 am66 °FPassing clouds.7 mph68%29.86 "HgN/A
3:00 am72 °FClear.6 mph47%29.86 "Hg10 mi
2:30 am70 °FPassing clouds.8 mph53%29.86 "HgN/A
2:00 am75 °FClear.3 mph25%29.86 "Hg10 mi
1:30 am81 °FPassing clouds.13 mph17%29.83 "HgN/A
1:00 am81 °FClear.16 mph17%29.83 "Hg10 mi
12:30 am81 °FPassing clouds.22 mph17%29.80 "HgN/A
12:00 am82 °FPassing clouds.7 mph15%29.80 "HgN/A
11:30 pm
Fri, Apr 10
82 °FPassing clouds.12 mph16%29.80 "HgN/A
11:00 pm82 °FPassing clouds.16 mph19%29.77 "HgN/A
10:30 pm82 °FPassing clouds.15 mph17%29.80 "HgN/A
10:00 pm82 °FPassing clouds.14 mph23%29.80 "HgN/A
9:30 pm82 °FPassing clouds.25 mph17%29.80 "HgN/A
9:00 pm81 °FPassing clouds.25 mph18%29.83 "HgN/A
8:30 pm79 °FPassing clouds.26 mph23%29.80 "HgN/A
8:00 pm82 °FScattered clouds.20 mph17%29.83 "HgN/A
7:30 pm81 °FScattered clouds.25 mph18%29.83 "HgN/A
7:00 pm82 °FPassing clouds.25 mph17%29.83 "HgN/A
6:30 pm82 °FSunny.26 mph19%29.77 "Hg10 mi
6:00 pm86 °FPassing clouds.23 mph15%29.77 "HgN/A
5:30 pm86 °FPassing clouds.24 mph14%29.80 "HgN/A
5:00 pm86 °FSunny.23 mph14%29.80 "Hg10 mi
4:30 pm84 °FPassing clouds.20 mph18%29.86 "HgN/A
4:00 pm86 °FPassing clouds.14 mph17%29.89 "HgN/A
Weather by CustomWeather, © 2026

See weather overview